This is the latest recevied weather packets stored in our database for station/object EA6AMI-5. If no packets are shown the sender has not sent any weather packets the latest 10 day(s).
| Time | Temp. | Humidity | Pressure | Rain* | Wind** | Luminosity | Snow |
|---|---|---|---|---|---|---|---|
| 1778030824 | 13.89° C | 81% | 1011.1 hPa | 0 mm | - | 0 W/m² | - |
| 1778030283 | 14.44° C | 79% | 1011.2 hPa | 0 mm | - | 0 W/m² | - |
| 1778029743 | 14.44° C | 80% | 1011.2 hPa | 0 mm | - | 0 W/m² | - |
| 1778029204 | 14.44° C | 80% | 1011.2 hPa | 0 mm | - | 0 W/m² | - |
| 1778028844 | 14.44° C | 80% | 1011.1 hPa | 0 mm | - | 0 W/m² | - |
| 1778028303 | 14.44° C | 80% | 1011.6 hPa | 0 mm | - | 0 W/m² | - |
| 1778027764 | 15° C | 79% | 1011.4 hPa | 0 mm | - | 0 W/m² | - |
| 1778027223 | 15.56° C | 77% | 1011.6 hPa | 0 mm | - | 0 W/m² | - |
| 1778026684 | 15° C | 78% | 1011.7 hPa | 0 mm | - | 0 W/m² | - |
| 1778026144 | 15° C | 78% | 1011.5 hPa | 0 mm | - | 0 W/m² | - |
| 1778025604 | 15.56° C | 78% | 1011.7 hPa | 0 mm | - | 0 W/m² | - |
| 1778025244 | 15.56° C | 76% | 1011.9 hPa | 0 mm | - | 0 W/m² | - |
| 1778024704 | 16.11° C | 74% | 1011.8 hPa | 0 mm | - | 0 W/m² | - |
| 1778024164 | 15.56° C | 77% | 1011.7 hPa | 0 mm | - | 0 W/m² | - |
| 1778023623 | 15.56° C | 77% | 1011.8 hPa | 0 mm | - | 0 W/m² | - |
| 1778023083 | 15.56° C | 77% | 1011.7 hPa | 0 mm | - | 0 W/m² | - |
| 1778022544 | 15.56° C | 78% | 1011.6 hPa | 0 mm | - | 0 W/m² | - |
| 1778022004 | 15.56° C | 78% | 1011.8 hPa | 0 mm | - | 0 W/m² | - |
| 1778021643 | 15.56° C | 82% | 1011.6 hPa | 0 mm | - | 0 W/m² | - |
| 1778021104 | 15.56° C | 81% | 1011.7 hPa | 0 mm | - | 0 W/m² | - |
| 1778020563 | 16.11° C | 79% | 1011.8 hPa | 0 mm | - | 0 W/m² | - |
| 1778020023 | 16.67° C | 73% | 1011.8 hPa | 0 mm | - | 0 W/m² | - |
| 1778019483 | 16.67° C | 71% | 1011.7 hPa | 0 mm | - | 0 W/m² | - |
| 1778018943 | 16.67° C | 75% | 1011.9 hPa | 0 mm | - | 0 W/m² | - |
| 1778018403 | 15.56° C | 84% | 1012.2 hPa | 0 mm | - | 0 W/m² | - |
* Rain latest hour (hover to see other rain measurements)
** Current wind speed in m/s (hover to see current wind gust speed)